sensor_id;sensor_type;location;lat;lon;timestamp;pressure;altitude;pressure_sealevel;temperature;humidity
44079;BME280;29744;49.078;12.878;2023-02-23T00:00:38;96016.22;;;15.24;34.05
44079;BME280;29744;49.078;12.878;2023-02-23T00:05:38;96017.66;;;15.21;34.20
44079;BME280;29744;49.078;12.878;2023-02-23T00:10:38;96012.94;;;15.18;33.89
44079;BME280;29744;49.078;12.878;2023-02-23T00:15:39;96014.06;;;15.17;34.15
44079;BME280;29744;49.078;12.878;2023-02-23T00:20:39;96010.13;;;15.14;34.40
44079;BME280;29744;49.078;12.878;2023-02-23T00:25:45;96000.00;;;15.11;34.30
44079;BME280;29744;49.078;12.878;2023-02-23T00:30:45;96001.13;;;15.10;34.12
44079;BME280;29744;49.078;12.878;2023-02-23T00:35:46;96005.28;;;15.08;34.23
44079;BME280;29744;49.078;12.878;2023-02-23T00:40:46;95997.53;;;15.06;34.51
44079;BME280;29744;49.078;12.878;2023-02-23T00:45:46;96005.97;;;15.05;34.13
44079;BME280;29744;49.078;12.878;2023-02-23T00:50:47;96003.59;;;15.03;34.14
44079;BME280;29744;49.078;12.878;2023-02-23T00:55:49;95998.50;;;15.02;34.15
44079;BME280;29744;49.078;12.878;2023-02-23T01:00:50;96003.44;;;15.00;34.41
44079;BME280;29744;49.078;12.878;2023-02-23T01:05:50;96009.53;;;14.97;34.40
44079;BME280;29744;49.078;12.878;2023-02-23T01:10:50;96000.19;;;14.94;34.19
44079;BME280;29744;49.078;12.878;2023-02-23T01:15:53;96004.00;;;14.93;34.47
44079;BME280;29744;49.078;12.878;2023-02-23T01:20:54;96017.84;;;14.92;34.57
44079;BME280;29744;49.078;12.878;2023-02-23T01:25:54;96009.28;;;14.90;34.46
44079;BME280;29744;49.078;12.878;2023-02-23T01:30:54;96008.84;;;14.88;34.13
44079;BME280;29744;49.078;12.878;2023-02-23T01:35:58;96008.06;;;14.87;34.19
44079;BME280;29744;49.078;12.878;2023-02-23T01:40:59;96002.19;;;14.85;34.71
44079;BME280;29744;49.078;12.878;2023-02-23T01:45:59;96000.63;;;14.84;34.49
44079;BME280;29744;49.078;12.878;2023-02-23T01:51:09;95996.69;;;14.81;34.36
44079;BME280;29744;49.078;12.878;2023-02-23T01:56:14;95998.59;;;14.81;34.30
44079;BME280;29744;49.078;12.878;2023-02-23T02:01:17;95990.03;;;14.79;34.52
44079;BME280;29744;49.078;12.878;2023-02-23T02:06:20;95991.16;;;14.78;34.60
44079;BME280;29744;49.078;12.878;2023-02-23T02:11:22;95993.09;;;14.77;34.32
44079;BME280;29744;49.078;12.878;2023-02-23T02:17:00;95987.56;;;14.74;34.67
44079;BME280;29744;49.078;12.878;2023-02-23T02:43:22;95981.94;;;14.67;34.82
44079;BME280;29744;49.078;12.878;2023-02-23T02:53:50;95979.13;;;14.63;34.76
44079;BME280;29744;49.078;12.878;2023-02-23T02:58:52;95978.78;;;14.65;35.04
44079;BME280;29744;49.078;12.878;2023-02-23T03:03:53;95976.41;;;14.63;34.67
44079;BME280;29744;49.078;12.878;2023-02-23T03:09:27;95974.38;;;14.60;34.70
44079;BME280;29744;49.078;12.878;2023-02-23T03:15:05;95972.81;;;14.59;34.87
44079;BME280;29744;49.078;12.878;2023-02-23T03:20:38;95983.94;;;14.58;34.82
44079;BME280;29744;49.078;12.878;2023-02-23T03:31:51;95976.06;;;14.53;34.58
44079;BME280;29744;49.078;12.878;2023-02-23T03:37:18;95974.94;;;14.54;34.84
44079;BME280;29744;49.078;12.878;2023-02-23T03:42:40;95970.66;;;14.53;34.62
44079;BME280;29744;49.078;12.878;2023-02-23T03:48:02;95975.59;;;14.50;34.58
44079;BME280;29744;49.078;12.878;2023-02-23T03:53:26;95978.31;;;14.50;34.55
44079;BME280;29744;49.078;12.878;2023-02-23T03:58:51;95979.44;;;14.49;34.93
44079;BME280;29744;49.078;12.878;2023-02-23T04:04:13;95982.47;;;14.48;34.98
44079;BME280;29744;49.078;12.878;2023-02-23T04:09:32;95982.47;;;14.48;34.58
44079;BME280;29744;49.078;12.878;2023-02-23T04:14:59;95973.91;;;14.46;34.81
44079;BME280;29744;49.078;12.878;2023-02-23T04:20:00;95983.91;;;14.45;35.13
44079;BME280;29744;49.078;12.878;2023-02-23T04:25:01;95986.59;;;14.45;34.93
44079;BME280;29744;49.078;12.878;2023-02-23T04:30:02;95987.72;;;14.44;34.58
44079;BME280;29744;49.078;12.878;2023-02-23T04:35:03;95984.25;;;14.44;35.00
44079;BME280;29744;49.078;12.878;2023-02-23T04:40:04;95984.25;;;14.44;34.84
44079;BME280;29744;49.078;12.878;2023-02-23T04:45:06;95981.53;;;14.44;34.89
44079;BME280;29744;49.078;12.878;2023-02-23T04:50:07;95977.41;;;14.46;35.06
44079;BME280;29744;49.078;12.878;2023-02-23T04:55:14;95989.53;;;14.53;35.07
44079;BME280;29744;49.078;12.878;2023-02-23T05:00:16;95981.69;;;14.60;34.70
44079;BME280;29744;49.078;12.878;2023-02-23T05:05:17;95985.88;;;14.69;34.55
44079;BME280;29744;49.078;12.878;2023-02-23T05:10:17;95989.25;;;14.78;34.70
44079;BME280;29744;49.078;12.878;2023-02-23T05:15:18;95988.47;;;14.90;34.70
44079;BME280;29744;49.078;12.878;2023-02-23T05:20:18;95986.13;;;15.01;34.45
44079;BME280;29744;49.078;12.878;2023-02-23T05:25:18;95988.84;;;15.13;34.55
44079;BME280;29744;49.078;12.878;2023-02-23T05:30:19;95983.44;;;15.25;34.48
44079;BME280;29744;49.078;12.878;2023-02-23T05:35:19;95993.91;;;15.39;34.67
44079;BME280;29744;49.078;12.878;2023-02-23T05:40:19;95993.09;;;15.51;34.53
44079;BME280;29744;49.078;12.878;2023-02-23T05:45:20;95995.44;;;15.64;34.24
44079;BME280;29744;49.078;12.878;2023-02-23T05:50:20;95989.22;;;15.76;34.27
44079;BME280;29744;49.078;12.878;2023-02-23T05:55:20;95992.72;;;15.89;33.95
44079;BME280;29744;49.078;12.878;2023-02-23T06:00:21;95993.47;;;16.01;34.21
44079;BME280;29744;49.078;12.878;2023-02-23T06:05:21;95999.84;;;16.09;33.94
44079;BME280;29744;49.078;12.878;2023-02-23T06:10:21;95999.72;;;16.18;33.43
44079;BME280;29744;49.078;12.878;2023-02-23T06:15:22;95999.91;;;16.25;33.69
44079;BME280;29744;49.078;12.878;2023-02-23T06:20:22;96008.91;;;16.29;33.58
44079;BME280;29744;49.078;12.878;2023-02-23T06:25:23;96005.50;;;16.32;33.62
44079;BME280;29744;49.078;12.878;2023-02-23T06:30:23;96019.13;;;16.35;33.24
44079;BME280;29744;49.078;12.878;2023-02-23T06:35:23;96022.28;;;16.37;33.50
44079;BME280;29744;49.078;12.878;2023-02-23T06:40:25;96021.94;;;16.39;33.63
44079;BME280;29744;49.078;12.878;2023-02-23T06:45:25;96032.44;;;16.40;33.36
44079;BME280;29744;49.078;12.878;2023-02-23T06:50:26;96035.16;;;16.40;33.68
44079;BME280;29744;49.078;12.878;2023-02-23T06:55:27;96036.25;;;16.39;33.33
44079;BME280;29744;49.078;12.878;2023-02-23T07:00:27;96033.56;;;16.39;33.35
44079;BME280;29744;49.078;12.878;2023-02-23T07:05:29;96040.44;;;16.37;33.39
44079;BME280;29744;49.078;12.878;2023-02-23T07:10:29;96038.06;;;16.35;33.48
44079;BME280;29744;49.078;12.878;2023-02-23T07:15:30;96047.31;;;16.34;33.06
44079;BME280;29744;49.078;12.878;2023-02-23T07:20:30;96052.28;;;16.32;33.37
44079;BME280;29744;49.078;12.878;2023-02-23T07:25:30;96048.34;;;16.30;33.45
44079;BME280;29744;49.078;12.878;2023-02-23T07:30:31;96053.31;;;16.28;33.23
44079;BME280;29744;49.078;12.878;2023-02-23T07:35:31;96052.44;;;16.24;33.17
44079;BME280;29744;49.078;12.878;2023-02-23T07:40:31;96057.41;;;16.22;33.21
44079;BME280;29744;49.078;12.878;2023-02-23T07:45:32;96058.09;;;16.19;33.15
44079;BME280;29744;49.078;12.878;2023-02-23T07:50:32;96054.94;;;16.17;33.36
44079;BME280;29744;49.078;12.878;2023-02-23T07:55:32;96050.22;;;16.14;33.74
44079;BME280;29744;49.078;12.878;2023-02-23T08:00:34;96053.28;;;16.12;33.51
44079;BME280;29744;49.078;12.878;2023-02-23T08:05:35;96055.88;;;16.08;33.42
44079;BME280;29744;49.078;12.878;2023-02-23T08:10:39;96056.22;;;16.07;33.49
44079;BME280;29744;49.078;12.878;2023-02-23T08:15:39;96065.81;;;16.04;33.78
44079;BME280;29744;49.078;12.878;2023-02-23T08:20:40;96065.34;;;16.02;33.33
44079;BME280;29744;49.078;12.878;2023-02-23T08:25:40;96064.91;;;16.00;33.69
44079;BME280;29744;49.078;12.878;2023-02-23T08:30:40;96062.09;;;15.97;33.70
44079;BME280;29744;49.078;12.878;2023-02-23T08:35:40;96057.38;;;15.94;33.66
44079;BME280;29744;49.078;12.878;2023-02-23T08:40:41;96063.91;;;15.93;33.86
44079;BME280;29744;49.078;12.878;2023-02-23T08:45:42;96061.09;;;15.89;33.92
44079;BME280;29744;49.078;12.878;2023-02-23T08:50:42;96057.94;;;15.87;33.49
44079;BME280;29744;49.078;12.878;2023-02-23T08:55:43;96056.72;;;15.85;33.71
44079;BME280;29744;49.078;12.878;2023-02-23T09:00:43;96062.47;;;15.83;33.79
44079;BME280;29744;49.078;12.878;2023-02-23T09:05:43;96074.75;;;15.81;33.68
44079;BME280;29744;49.078;12.878;2023-02-23T09:10:44;96072.34;;;15.79;34.18
44079;BME280;29744;49.078;12.878;2023-02-23T09:15:44;96073.47;;;15.78;34.00
44079;BME280;29744;49.078;12.878;2023-02-23T09:20:45;96077.66;;;15.75;34.16
44079;BME280;29744;49.078;12.878;2023-02-23T09:25:45;96079.13;;;15.73;33.70
44079;BME280;29744;49.078;12.878;2023-02-23T09:30:46;96080.59;;;15.70;34.06
44079;BME280;29744;49.078;12.878;2023-02-23T09:35:46;96088.25;;;15.68;34.38
44079;BME280;29744;49.078;12.878;2023-02-23T09:40:49;96085.09;;;15.66;34.34
44079;BME280;29744;49.078;12.878;2023-02-23T09:46:10;96088.81;;;15.62;33.71
44079;BME280;29744;49.078;12.878;2023-02-23T09:51:18;96084.53;;;15.61;34.34
44079;BME280;29744;49.078;12.878;2023-02-23T09:56:31;96090.63;;;15.58;34.29
44079;BME280;29744;49.078;12.878;2023-02-23T10:01:48;96088.25;;;15.56;33.99
44079;BME280;29744;49.078;12.878;2023-02-23T10:06:59;96089.81;;;15.45;34.10
44079;BME280;29744;49.078;12.878;2023-02-23T10:12:10;96088.03;;;15.49;34.09
44079;BME280;29744;49.078;12.878;2023-02-23T10:17:23;96089.16;;;15.48;33.93
44079;BME280;29744;49.078;12.878;2023-02-23T10:22:25;96089.50;;;15.46;34.16
44079;BME280;29744;49.078;12.878;2023-02-23T10:27:37;96096.03;;;15.45;34.16
44079;BME280;29744;49.078;12.878;2023-02-23T10:32:47;96094.44;;;15.44;33.94
44079;BME280;29744;49.078;12.878;2023-02-23T10:37:50;96092.88;;;15.43;33.85
44079;BME280;29744;49.078;12.878;2023-02-23T10:42:51;96084.31;;;15.41;34.11
44079;BME280;29744;49.078;12.878;2023-02-23T10:48:05;96082.28;;;15.38;34.09
44079;BME280;29744;49.078;12.878;2023-02-23T10:53:16;96078.00;;;15.37;34.25
44079;BME280;29744;49.078;12.878;2023-02-23T10:58:18;96078.00;;;15.37;34.29
44079;BME280;29744;49.078;12.878;2023-02-23T11:08:38;96069.44;;;15.35;34.46
44079;BME280;29744;49.078;12.878;2023-02-23T11:13:43;96065.97;;;15.35;34.34
44079;BME280;29744;49.078;12.878;2023-02-23T11:18:52;96060.91;;;15.33;34.02
44079;BME280;29744;49.078;12.878;2023-02-23T11:23:56;96055.50;;;15.33;34.21
44079;BME280;29744;49.078;12.878;2023-02-23T11:29:01;96049.28;;;15.33;34.08
44079;BME280;29744;49.078;12.878;2023-02-23T11:34:05;96048.84;;;15.31;33.94
44079;BME280;29744;49.078;12.878;2023-02-23T11:39:17;96040.19;;;15.25;33.86
44079;BME280;29744;49.078;12.878;2023-02-23T11:44:21;96036.34;;;15.14;33.57
44079;BME280;29744;49.078;12.878;2023-02-23T11:49:27;96029.94;;;15.06;33.58
44079;BME280;29744;49.078;12.878;2023-02-23T11:54:31;96027.13;;;15.03;33.79
44079;BME280;29744;49.078;12.878;2023-02-23T11:59:35;96022.81;;;15.02;33.47
44079;BME280;29744;49.078;12.878;2023-02-23T12:04:38;96024.72;;;15.01;33.79
44079;BME280;29744;49.078;12.878;2023-02-23T12:09:40;96018.88;;;14.99;34.08
44079;BME280;29744;49.078;12.878;2023-02-23T12:14:58;96023.47;;;14.99;33.84
44079;BME280;29744;49.078;12.878;2023-02-23T12:20:05;96020.78;;;14.99;34.01
44079;BME280;29744;49.078;12.878;2023-02-23T12:25:24;96014.25;;;15.00;33.81
44079;BME280;29744;49.078;12.878;2023-02-23T12:30:41;96017.28;;;14.98;34.00
44079;BME280;29744;49.078;12.878;2023-02-23T12:35:53;96016.50;;;14.98;34.11
44079;BME280;29744;49.078;12.878;2023-02-23T12:41:34;96021.78;;;14.94;33.91
44079;BME280;29744;49.078;12.878;2023-02-23T12:46:40;96015.59;;;14.94;34.06
44079;BME280;29744;49.078;12.878;2023-02-23T12:51:53;96017.16;;;14.95;34.09
44079;BME280;29744;49.078;12.878;2023-02-23T12:57:11;96014.03;;;14.93;34.30
44079;BME280;29744;49.078;12.878;2023-02-23T13:02:27;96002.44;;;14.92;34.46
44079;BME280;29744;49.078;12.878;2023-02-23T13:08:01;96007.03;;;14.92;34.17
44079;BME280;29744;49.078;12.878;2023-02-23T13:18:47;96004.69;;;14.90;33.94
44079;BME280;29744;49.078;12.878;2023-02-23T13:35:09;95999.94;;;14.87;34.47
44079;BME280;29744;49.078;12.878;2023-02-23T13:40:28;96000.75;;;14.88;34.05
44079;BME280;29744;49.078;12.878;2023-02-23T13:45:50;95997.59;;;14.86;34.10
44079;BME280;29744;49.078;12.878;2023-02-23T13:51:04;95996.81;;;14.85;34.34
44079;BME280;29744;49.078;12.878;2023-02-23T13:56:17;95992.19;;;14.86;34.59
44079;BME280;29744;49.078;12.878;2023-02-23T14:01:25;95989.03;;;14.83;34.14
44079;BME280;29744;49.078;12.878;2023-02-23T14:06:30;95989.81;;;14.84;34.17
44079;BME280;29744;49.078;12.878;2023-02-23T14:22:16;95980.81;;;14.80;34.57
44079;BME280;29744;49.078;12.878;2023-02-23T14:27:44;95987.69;;;14.77;34.58
44079;BME280;29744;49.078;12.878;2023-02-23T14:32:46;95992.75;;;14.79;34.23
44079;BME280;29744;49.078;12.878;2023-02-23T14:37:55;95978.00;;;14.76;34.17
44079;BME280;29744;49.078;12.878;2023-02-23T14:43:00;95978.00;;;14.76;34.38
44079;BME280;29744;49.078;12.878;2023-02-23T14:48:04;95979.13;;;14.75;34.44
44079;BME280;29744;49.078;12.878;2023-02-23T14:53:15;95979.47;;;14.74;34.35
44079;BME280;29744;49.078;12.878;2023-02-23T14:58:24;95984.06;;;14.73;34.33
44079;BME280;29744;49.078;12.878;2023-02-23T15:03:25;95973.63;;;14.72;34.72
44079;BME280;29744;49.078;12.878;2023-02-23T15:08:27;95976.66;;;14.70;34.75
44079;BME280;29744;49.078;12.878;2023-02-23T15:13:35;95975.06;;;14.69;34.74
44079;BME280;29744;49.078;12.878;2023-02-23T15:24:42;95966.06;;;14.65;34.37
44079;BME280;29744;49.078;12.878;2023-02-23T15:29:42;95966.06;;;14.65;34.96
44079;BME280;29744;49.078;12.878;2023-02-23T15:34:43;95962.59;;;14.65;34.62
44079;BME280;29744;49.078;12.878;2023-02-23T15:39:53;95955.63;;;14.64;34.70
44079;BME280;29744;49.078;12.878;2023-02-23T15:44:59;95960.22;;;14.63;34.96
44079;BME280;29744;49.078;12.878;2023-02-23T15:50:07;95957.19;;;14.65;34.27
44079;BME280;29744;49.078;12.878;2023-02-23T15:55:19;95965.63;;;14.63;34.91
44079;BME280;29744;49.078;12.878;2023-02-23T16:00:39;95958.97;;;14.61;34.77
44079;BME280;29744;49.078;12.878;2023-02-23T16:05:54;95959.31;;;14.59;34.77
44079;BME280;29744;49.078;12.878;2023-02-23T16:11:08;95965.84;;;14.58;34.78
44079;BME280;29744;49.078;12.878;2023-02-23T16:16:11;95957.84;;;14.62;34.80
44079;BME280;29744;49.078;12.878;2023-02-23T16:21:21;95961.78;;;14.64;34.90
44079;BME280;29744;49.078;12.878;2023-02-23T16:26:44;95962.69;;;14.68;34.95
44079;BME280;29744;49.078;12.878;2023-02-23T16:31:48;95972.59;;;14.76;34.33
44079;BME280;29744;49.078;12.878;2023-02-23T16:36:53;95966.78;;;14.87;34.99
44079;BME280;29744;49.078;12.878;2023-02-23T16:41:57;95971.38;;;14.98;34.43
44079;BME280;29744;49.078;12.878;2023-02-23T16:52:05;95976.03;;;15.22;34.39
44079;BME280;29744;49.078;12.878;2023-02-23T16:57:20;95979.16;;;15.36;34.34
44079;BME280;29744;49.078;12.878;2023-02-23T17:02:23;95973.41;;;15.50;34.24
44079;BME280;29744;49.078;12.878;2023-02-23T17:07:23;95970.31;;;15.64;34.13
44079;BME280;29744;49.078;12.878;2023-02-23T17:12:23;95980.78;;;15.77;33.81
44079;BME280;29744;49.078;12.878;2023-02-23T17:17:24;95980.75;;;15.90;34.01
44079;BME280;29744;49.078;12.878;2023-02-23T17:22:24;95978.03;;;16.02;33.83
44079;BME280;29744;49.078;12.878;2023-02-23T17:27:24;95975.94;;;16.11;33.93
44079;BME280;29744;49.078;12.878;2023-02-23T17:32:25;95979.28;;;16.20;33.51
44079;BME280;29744;49.078;12.878;2023-02-23T17:37:26;95983.75;;;16.28;33.53
44079;BME280;29744;49.078;12.878;2023-02-23T17:42:28;95976.97;;;16.34;33.56
44079;BME280;29744;49.078;12.878;2023-02-23T17:47:34;95985.19;;;16.38;33.47
44079;BME280;29744;49.078;12.878;2023-02-23T17:52:34;95981.81;;;16.41;33.39
44079;BME280;29744;49.078;12.878;2023-02-23T17:57:35;95983.03;;;16.44;33.49
44079;BME280;29744;49.078;12.878;2023-02-23T18:02:35;95976.50;;;16.45;33.53
44079;BME280;29744;49.078;12.878;2023-02-23T18:07:36;95985.41;;;16.45;33.68
44079;BME280;29744;49.078;12.878;2023-02-23T18:12:37;95986.97;;;16.46;33.47
44079;BME280;29744;49.078;12.878;2023-02-23T18:17:38;95982.69;;;16.45;33.12
44079;BME280;29744;49.078;12.878;2023-02-23T18:22:38;95981.91;;;16.45;33.32
44079;BME280;29744;49.078;12.878;2023-02-23T18:27:38;95986.88;;;16.42;33.34
44079;BME280;29744;49.078;12.878;2023-02-23T18:32:39;95982.59;;;16.41;33.16
44079;BME280;29744;49.078;12.878;2023-02-23T18:37:39;95977.50;;;16.40;33.11
44079;BME280;29744;49.078;12.878;2023-02-23T18:42:39;95979.78;;;16.38;33.76
44079;BME280;29744;49.078;12.878;2023-02-23T18:47:40;95978.19;;;16.37;33.14
44079;BME280;29744;49.078;12.878;2023-02-23T18:52:41;95980.47;;;16.35;33.74
44079;BME280;29744;49.078;12.878;2023-02-23T18:57:42;95980.03;;;16.33;33.70
44079;BME280;29744;49.078;12.878;2023-02-23T19:02:44;95973.38;;;16.30;33.68
44079;BME280;29744;49.078;12.878;2023-02-23T19:07:45;95977.22;;;16.29;33.32
44079;BME280;29744;49.078;12.878;2023-02-23T19:12:45;95973.28;;;16.27;33.42
44079;BME280;29744;49.078;12.878;2023-02-23T19:17:46;95978.25;;;16.25;33.11
44079;BME280;29744;49.078;12.878;2023-02-23T19:22:46;95965.41;;;16.22;33.63
44079;BME280;29744;49.078;12.878;2023-02-23T19:27:46;95968.47;;;16.20;33.37
44079;BME280;29744;49.078;12.878;2023-02-23T19:32:47;95969.16;;;16.17;33.34
44079;BME280;29744;49.078;12.878;2023-02-23T19:37:49;95967.59;;;16.16;33.53
44079;BME280;29744;49.078;12.878;2023-02-23T19:42:50;95974.47;;;16.14;33.68
44079;BME280;29744;49.078;12.878;2023-02-23T19:47:52;95975.94;;;16.11;33.59
44079;BME280;29744;49.078;12.878;2023-02-23T19:52:52;95972.03;;;16.08;33.59
44079;BME280;29744;49.078;12.878;2023-02-23T19:57:52;95983.53;;;16.05;33.62
44079;BME280;29744;49.078;12.878;2023-02-23T20:02:53;95983.09;;;16.03;33.55
44079;BME280;29744;49.078;12.878;2023-02-23T20:08:00;95975.47;;;15.93;34.08
44079;BME280;29744;49.078;12.878;2023-02-23T20:13:00;95967.44;;;15.97;33.93
44079;BME280;29744;49.078;12.878;2023-02-23T20:18:01;95979.72;;;15.94;33.78
44079;BME280;29744;49.078;12.878;2023-02-23T20:23:01;95975.81;;;15.92;33.61
44079;BME280;29744;49.078;12.878;2023-02-23T20:28:02;95971.88;;;15.89;33.74
44079;BME280;29744;49.078;12.878;2023-02-23T20:33:02;95973.34;;;15.87;33.50
44079;BME280;29744;49.078;12.878;2023-02-23T20:38:04;95975.94;;;15.83;33.74
44079;BME280;29744;49.078;12.878;2023-02-23T20:43:05;95970.88;;;15.82;33.78
44079;BME280;29744;49.078;12.878;2023-02-23T20:48:06;95969.63;;;15.79;34.07
44079;BME280;29744;49.078;12.878;2023-02-23T20:53:08;95965.69;;;15.76;34.03
44079;BME280;29744;49.078;12.878;2023-02-23T20:58:08;95960.16;;;15.73;33.98
44079;BME280;29744;49.078;12.878;2023-02-23T21:03:09;95964.78;;;15.72;33.54
44079;BME280;29744;49.078;12.878;2023-02-23T21:08:09;95954.31;;;15.71;33.82
44079;BME280;29744;49.078;12.878;2023-02-23T21:13:10;95957.03;;;15.71;33.66
44079;BME280;29744;49.078;12.878;2023-02-23T21:18:10;95956.69;;;15.72;33.97
44079;BME280;29744;49.078;12.878;2023-02-23T21:23:11;95953.97;;;15.72;33.85
44079;BME280;29744;49.078;12.878;2023-02-23T21:28:11;95951.63;;;15.71;34.05
44079;BME280;29744;49.078;12.878;2023-02-23T21:33:11;95948.13;;;15.70;33.70
44079;BME280;29744;49.078;12.878;2023-02-23T21:38:12;95944.63;;;15.70;33.92
44079;BME280;29744;49.078;12.878;2023-02-23T21:43:12;95943.41;;;15.67;33.86
44079;BME280;29744;49.078;12.878;2023-02-23T21:48:12;95942.63;;;15.67;34.08
44079;BME280;29744;49.078;12.878;2023-02-23T21:53:12;95943.75;;;15.66;34.22
44079;BME280;29744;49.078;12.878;2023-02-23T21:58:13;95933.28;;;15.64;33.68
44079;BME280;29744;49.078;12.878;2023-02-23T22:03:13;95939.03;;;15.63;34.20
44079;BME280;29744;49.078;12.878;2023-02-23T22:08:13;95930.47;;;15.61;33.82
44079;BME280;29744;49.078;12.878;2023-02-23T22:13:14;95928.56;;;15.61;34.04
44079;BME280;29744;49.078;12.878;2023-02-23T22:18:14;95927.66;;;15.57;34.19
44079;BME280;29744;49.078;12.878;2023-02-23T22:23:15;95932.28;;;15.57;33.89
44079;BME280;29744;49.078;12.878;2023-02-23T22:28:15;95931.06;;;15.54;33.77
44079;BME280;29744;49.078;12.878;2023-02-23T22:33:17;95924.06;;;15.53;34.09
44079;BME280;29744;49.078;12.878;2023-02-23T22:38:18;95910.13;;;15.51;34.28
44079;BME280;29744;49.078;12.878;2023-02-23T22:43:19;95913.50;;;15.48;33.91
44079;BME280;29744;49.078;12.878;2023-02-23T22:48:21;95916.53;;;15.46;33.92
44079;BME280;29744;49.078;12.878;2023-02-23T22:53:22;95918.81;;;15.44;34.06
44079;BME280;29744;49.078;12.878;2023-02-23T22:58:24;95918.81;;;15.44;33.89
44079;BME280;29744;49.078;12.878;2023-02-23T23:03:37;95916.00;;;15.41;33.82
44079;BME280;29744;49.078;12.878;2023-02-23T23:08:41;95917.13;;;15.40;34.06
44079;BME280;29744;49.078;12.878;2023-02-23T23:13:43;95910.50;;;15.37;34.36
44079;BME280;29744;49.078;12.878;2023-02-23T23:18:48;95898.91;;;15.37;34.14
44079;BME280;29744;49.078;12.878;2023-02-23T23:23:50;95900.38;;;15.34;34.27
44079;BME280;29744;49.078;12.878;2023-02-23T23:28:53;95889.91;;;15.33;34.11
44079;BME280;29744;49.078;12.878;2023-02-23T23:34:00;95890.25;;;15.31;34.42
44079;BME280;29744;49.078;12.878;2023-02-23T23:39:02;95885.53;;;15.28;34.21
44079;BME280;29744;49.078;12.878;2023-02-23T23:44:04;95893.97;;;15.27;34.30
44079;BME280;29744;49.078;12.878;2023-02-23T23:49:13;95888.47;;;15.23;34.40
44079;BME280;29744;49.078;12.878;2023-02-23T23:54:18;95879.56;;;15.23;34.24
44079;BME280;29744;49.078;12.878;2023-02-23T23:59:21;95882.59;;;15.21;34.03
